Time;durP1;ratioP1;P1;durP2;ratioP2;P2;SDS_P1;SDS_P2;PMS_P1;PMS_P2;Temp;Humidity;BMP_temperature;BMP_pressure;BME280_temperature;BME280_humidity;BME280_pressure;Samples;Min_cycle;Max_cycle;Signal;HPM_P1;HPM_P2
2022/02/26 00:01:08;;;;;;;8.43;4.40;;;;;;;;;;4953808;28;20053;-74
2022/02/26 00:03:37;;;;;;;11.75;4.80;;;;;;;;;;4957107;28;20036;-72
2022/02/26 00:06:05;;;;;;;13.07;4.35;;;;;;;;;;4971768;28;20047;-73
2022/02/26 00:08:35;;;;;;;15.93;4.47;;;;;;;;;;4957352;29;20046;-71
2022/02/26 00:11:02;;;;;;;9.00;4.30;;;;;;;;;;4957198;28;20130;-71
2022/02/26 00:13:30;;;;;;;11.23;4.57;;;;;;;;;;4972022;28;20042;-73
2022/02/26 00:15:57;;;;;;;10.27;4.07;;;;;;;;;;4957075;29;20047;-71
2022/02/26 00:18:25;;;;;;;11.85;4.70;;;;;;;;;;4971885;28;20399;-70
2022/02/26 00:20:54;;;;;;;15.90;5.32;;;;;;;;;;4971907;28;20047;-73
2022/02/26 00:23:22;;;;;;;8.65;5.20;;;;;;;;;;4956831;29;20054;-72
2022/02/26 00:25:50;;;;;;;9.68;4.60;;;;;;;;;;4956861;29;20049;-74
2022/02/26 00:28:18;;;;;;;15.10;4.88;;;;;;;;;;4956765;29;20051;-71
2022/02/26 00:30:45;;;;;;;9.23;4.50;;;;;;;;;;4956825;28;20475;-72
2022/02/26 00:33:13;;;;;;;9.65;4.68;;;;;;;;;;4971654;28;20039;-71
2022/02/26 00:35:43;;;;;;;8.88;4.63;;;;;;;;;;4956836;29;20448;-73
2022/02/26 00:38:11;;;;;;;9.25;5.03;;;;;;;;;;4971462;28;20039;-73
2022/02/26 00:40:38;;;;;;;6.90;4.60;;;;;;;;;;4956627;28;20407;-73
2022/02/26 00:43:06;;;;;;;10.02;4.35;;;;;;;;;;4956686;28;20511;-73
2022/02/26 00:45:34;;;;;;;5.97;4.20;;;;;;;;;;4956647;28;20035;-72
2022/02/26 00:48:03;;;;;;;7.90;4.10;;;;;;;;;;4971323;28;20098;-74
2022/02/26 00:50:31;;;;;;;11.60;4.32;;;;;;;;;;4971342;28;20373;-71
2022/02/26 00:52:58;;;;;;;12.75;4.93;;;;;;;;;;4971222;28;20051;-71
2022/02/26 00:55:26;;;;;;;10.05;4.30;;;;;;;;;;4954908;29;20058;-73
2022/02/26 00:57:54;;;;;;;8.05;4.20;;;;;;;;;;4971308;28;20483;-71
2022/02/26 01:00:21;;;;;;;7.55;4.00;;;;;;;;;;4956320;28;20043;-73
2022/02/26 01:02:51;;;;;;;9.52;4.18;;;;;;;;;;4971367;28;20051;-73
2022/02/26 01:05:19;;;;;;;8.85;4.70;;;;;;;;;;4970949;28;20047;-73
2022/02/26 01:07:52;;;;;;;9.15;4.38;;;;;;;;;;4954624;29;20119;-71
2022/02/26 01:10:20;;;;;;;8.05;4.10;;;;;;;;;;4955757;28;20039;-72
2022/02/26 01:12:47;;;;;;;11.77;4.45;;;;;;;;;;4955933;28;20098;-71
2022/02/26 01:15:15;;;;;;;10.10;4.68;;;;;;;;;;4970541;28;20062;-73
2022/02/26 01:17:42;;;;;;;10.43;5.15;;;;;;;;;;4970439;28;20063;-72
2022/02/26 01:20:10;;;;;;;9.52;4.55;;;;;;;;;;4956114;28;20069;-71
2022/02/26 01:22:37;;;;;;;10.15;4.90;;;;;;;;;;4970672;28;20043;-74
2022/02/26 01:25:06;;;;;;;15.65;5.07;;;;;;;;;;4970645;28;20417;-72
2022/02/26 01:27:34;;;;;;;10.18;5.35;;;;;;;;;;4955922;28;20047;-71
2022/02/26 01:30:02;;;;;;;10.60;5.00;;;;;;;;;;4954223;28;20114;-73
2022/02/26 01:32:29;;;;;;;12.43;5.13;;;;;;;;;;4955856;29;20463;-74
2022/02/26 01:35:00;;;;;;;13.30;5.57;;;;;;;;;;4956066;29;20094;-71
2022/02/26 01:37:27;;;;;;;12.45;5.40;;;;;;;;;;4970684;28;20047;-71
2022/02/26 01:39:55;;;;;;;11.82;4.78;;;;;;;;;;4970694;28;20094;-73
2022/02/26 01:42:22;;;;;;;11.18;4.80;;;;;;;;;;4970101;28;20035;-71
2022/02/26 01:44:52;;;;;;;9.77;4.90;;;;;;;;;;4955368;28;20098;-71
2022/02/26 01:47:21;;;;;;;15.00;4.90;;;;;;;;;;4954403;29;20502;-73
2022/02/26 01:49:49;;;;;;;9.40;4.28;;;;;;;;;;4955467;29;20051;-74
2022/02/26 01:52:21;;;;;;;8.95;4.60;;;;;;;;;;4953928;29;20053;-72
2022/02/26 01:54:48;;;;;;;8.70;4.65;;;;;;;;;;4955448;29;20044;-74
2022/02/26 01:57:16;;;;;;;7.95;4.68;;;;;;;;;;4955696;28;20050;-71
2022/02/26 01:59:46;;;;;;;14.48;4.35;;;;;;;;;;4970009;28;20071;-71
2022/02/26 02:02:13;;;;;;;12.95;4.57;;;;;;;;;;4970190;28;20054;-73
2022/02/26 02:04:41;;;;;;;6.65;4.22;;;;;;;;;;4954924;28;20517;-73
2022/02/26 02:07:09;;;;;;;11.13;4.45;;;;;;;;;;4955100;29;20042;-72
2022/02/26 02:09:36;;;;;;;10.43;4.93;;;;;;;;;;4955265;29;20518;-73
2022/02/26 02:12:05;;;;;;;11.57;4.85;;;;;;;;;;4954432;28;20407;-71
2022/02/26 02:14:32;;;;;;;9.73;4.72;;;;;;;;;;4955035;29;20047;-74
2022/02/26 02:17:04;;;;;;;11.10;4.65;;;;;;;;;;4954711;29;20069;-72
2022/02/26 02:19:31;;;;;;;11.77;4.93;;;;;;;;;;4955259;28;20039;-74
2022/02/26 02:22:02;;;;;;;10.38;4.68;;;;;;;;;;4955030;29;20079;-73
2022/02/26 02:24:30;;;;;;;13.25;5.63;;;;;;;;;;4953798;28;20423;-72
2022/02/26 02:26:59;;;;;;;12.43;5.38;;;;;;;;;;4953421;29;20082;-72
2022/02/26 02:29:27;;;;;;;8.30;4.53;;;;;;;;;;4969061;28;20043;-73
2022/02/26 02:31:59;;;;;;;10.00;5.00;;;;;;;;;;4969431;28;20043;-73
2022/02/26 02:34:32;;;;;;;12.50;5.18;;;;;;;;;;4955023;28;20062;-71
2022/02/26 02:37:00;;;;;;;8.35;4.85;;;;;;;;;;4954847;29;20047;-72
2022/02/26 02:39:29;;;;;;;11.20;4.95;;;;;;;;;;4969265;28;20050;-71
2022/02/26 02:41:56;;;;;;;11.02;4.93;;;;;;;;;;4969178;28;20043;-71
2022/02/26 02:44:25;;;;;;;8.82;4.75;;;;;;;;;;4954572;28;20039;-72
2022/02/26 02:46:53;;;;;;;8.32;4.53;;;;;;;;;;4969754;28;20040;-73
2022/02/26 02:49:23;;;;;;;10.07;4.65;;;;;;;;;;4954696;29;20464;-72
2022/02/26 02:51:53;;;;;;;8.30;4.57;;;;;;;;;;4953574;29;20409;-74
2022/02/26 02:54:24;;;;;;;11.55;4.90;;;;;;;;;;4968695;28;20121;-73
2022/02/26 02:56:52;;;;;;;5.30;3.95;;;;;;;;;;4969409;28;20488;-73
2022/02/26 02:59:19;;;;;;;9.48;4.07;;;;;;;;;;4969303;28;20039;-73
2022/02/26 03:01:47;;;;;;;7.70;3.85;;;;;;;;;;4954306;29;20049;-71
2022/02/26 03:04:14;;;;;;;10.00;4.13;;;;;;;;;;4954465;29;20039;-73
2022/02/26 03:06:42;;;;;;;9.38;4.07;;;;;;;;;;4954305;28;20035;-73
2022/02/26 03:09:10;;;;;;;7.78;3.88;;;;;;;;;;4969279;28;20140;-73
2022/02/26 03:11:40;;;;;;;10.45;4.00;;;;;;;;;;4969642;28;20094;-72
2022/02/26 03:14:08;;;;;;;12.05;4.07;;;;;;;;;;4954400;29;20121;-73
2022/02/26 03:16:38;;;;;;;7.47;3.75;;;;;;;;;;4954264;29;20054;-74
2022/02/26 03:19:06;;;;;;;11.05;4.28;;;;;;;;;;4954315;29;20216;-71
2022/02/26 03:21:35;;;;;;;11.65;3.70;;;;;;;;;;4952798;29;20225;-71
2022/02/26 03:24:05;;;;;;;9.93;3.90;;;;;;;;;;4969197;28;20054;-73
2022/02/26 03:26:33;;;;;;;7.07;3.70;;;;;;;;;;4952951;29;20042;-75
2022/02/26 03:29:01;;;;;;;6.47;3.60;;;;;;;;;;4954188;28;20054;-70
2022/02/26 03:31:29;;;;;;;8.55;4.10;;;;;;;;;;4954646;28;20135;-70
2022/02/26 03:33:56;;;;;;;7.00;4.00;;;;;;;;;;4969335;28;20043;-71
2022/02/26 03:36:24;;;;;;;7.40;3.80;;;;;;;;;;4954377;28;20049;-70
2022/02/26 03:38:51;;;;;;;8.38;4.03;;;;;;;;;;4972482;28;20040;-73
2022/02/26 03:41:20;;;;;;;14.05;4.72;;;;;;;;;;4957523;28;20083;-72
2022/02/26 03:43:47;;;;;;;11.82;4.15;;;;;;;;;;4957652;29;20383;-70
2022/02/26 03:46:15;;;;;;;6.57;3.70;;;;;;;;;;4972442;28;20043;-70
2022/02/26 03:48:44;;;;;;;7.65;3.92;;;;;;;;;;4972483;28;20138;-72
2022/02/26 03:51:12;;;;;;;5.55;3.50;;;;;;;;;;4957444;29;20051;-70
2022/02/26 03:53:41;;;;;;;13.98;3.88;;;;;;;;;;4957511;28;20499;-70
2022/02/26 03:56:10;;;;;;;5.28;3.50;;;;;;;;;;4972272;28;20043;-70
2022/02/26 03:58:38;;;;;;;7.78;3.78;;;;;;;;;;4957936;28;20039;-73
2022/02/26 04:01:05;;;;;;;10.93;3.78;;;;;;;;;;4957587;28;20043;-71
2022/02/26 04:03:34;;;;;;;7.55;3.53;;;;;;;;;;4957454;29;20065;-73
2022/02/26 04:06:02;;;;;;;9.35;3.65;;;;;;;;;;4972176;28;20062;-72
2022/02/26 04:08:30;;;;;;;7.68;3.92;;;;;;;;;;4972129;28;20039;-74
2022/02/26 04:10:58;;;;;;;11.20;4.18;;;;;;;;;;4971803;28;20050;-71
2022/02/26 04:13:25;;;;;;;7.90;3.47;;;;;;;;;;4957216;29;20032;-72
2022/02/26 04:15:55;;;;;;;8.90;3.63;;;;;;;;;;4955759;29;20051;-70
2022/02/26 04:18:22;;;;;;;9.30;3.95;;;;;;;;;;4957414;29;20359;-73
2022/02/26 04:20:50;;;;;;;12.57;3.45;;;;;;;;;;4957242;28;20506;-72
2022/02/26 04:23:17;;;;;;;10.02;3.50;;;;;;;;;;4971949;28;20130;-70
2022/02/26 04:25:45;;;;;;;6.78;3.38;;;;;;;;;;4971797;28;20432;-70
2022/02/26 04:28:12;;;;;;;6.40;3.55;;;;;;;;;;4955861;29;20042;-70
2022/02/26 04:30:40;;;;;;;9.93;3.70;;;;;;;;;;4971600;28;20488;-72
2022/02/26 04:33:08;;;;;;;9.18;3.70;;;;;;;;;;4956878;29;20047;-70
2022/02/26 04:35:36;;;;;;;9.50;3.50;;;;;;;;;;4957203;29;20043;-70
2022/02/26 04:38:03;;;;;;;7.63;3.33;;;;;;;;;;4956901;29;20114;-70
2022/02/26 04:40:31;;;;;;;7.90;3.72;;;;;;;;;;4955306;29;20087;-72
2022/02/26 04:42:58;;;;;;;7.38;3.40;;;;;;;;;;4956502;29;20043;-70
2022/02/26 04:45:26;;;;;;;9.02;3.78;;;;;;;;;;4956734;28;20046;-73
2022/02/26 04:47:54;;;;;;;7.18;3.63;;;;;;;;;;4970934;28;20110;-70
2022/02/26 04:50:22;;;;;;;11.50;4.10;;;;;;;;;;4956211;29;20049;-72
2022/02/26 04:52:49;;;;;;;12.57;3.80;;;;;;;;;;4956472;29;20122;-73
2022/02/26 04:55:19;;;;;;;7.38;3.90;;;;;;;;;;4956586;29;20059;-72
2022/02/26 04:57:47;;;;;;;7.20;3.80;;;;;;;;;;4956460;29;20051;-70
2022/02/26 05:00:19;;;;;;;7.90;3.75;;;;;;;;;;4956325;28;20106;-73
2022/02/26 05:02:46;;;;;;;8.60;3.90;;;;;;;;;;4956254;28;20499;-72
2022/02/26 05:05:14;;;;;;;11.77;3.92;;;;;;;;;;4970618;28;20032;-70
2022/02/26 05:07:41;;;;;;;9.15;4.28;;;;;;;;;;4971182;28;20053;-74
2022/02/26 05:10:09;;;;;;;12.52;4.53;;;;;;;;;;4970895;28;20070;-73
2022/02/26 05:12:37;;;;;;;11.10;3.83;;;;;;;;;;4955464;29;20058;-73
2022/02/26 05:15:05;;;;;;;11.07;3.90;;;;;;;;;;4955983;29;20126;-70
2022/02/26 05:17:32;;;;;;;10.25;4.07;;;;;;;;;;4955459;29;20497;-73
2022/02/26 05:20:00;;;;;;;7.43;4.25;;;;;;;;;;4955912;29;20502;-70
2022/02/26 05:22:27;;;;;;;10.95;4.32;;;;;;;;;;4970800;28;20074;-70
2022/02/26 05:24:55;;;;;;;19.95;5.03;;;;;;;;;;4955962;29;20052;-71
2022/02/26 05:27:22;;;;;;;12.77;4.50;;;;;;;;;;4955852;28;20039;-70
2022/02/26 05:29:50;;;;;;;9.02;4.15;;;;;;;;;;4955542;28;20051;-71
2022/02/26 05:32:17;;;;;;;10.43;4.20;;;;;;;;;;4955658;29;20046;-73
2022/02/26 05:34:45;;;;;;;11.85;4.30;;;;;;;;;;4954120;29;20051;-70
2022/02/26 05:37:12;;;;;;;14.90;4.88;;;;;;;;;;4970680;28;20048;-71
2022/02/26 05:39:40;;;;;;;12.00;4.90;;;;;;;;;;4970052;28;20471;-73
2022/02/26 05:42:10;;;;;;;13.68;4.85;;;;;;;;;;4955013;28;20534;-70
2022/02/26 05:44:37;;;;;;;9.38;4.72;;;;;;;;;;4955739;29;20126;-70
2022/02/26 05:47:05;;;;;;;16.77;5.85;;;;;;;;;;4970054;28;20434;-70
2022/02/26 05:49:33;;;;;;;18.50;6.47;;;;;;;;;;4970164;28;20570;-70
2022/02/26 05:52:00;;;;;;;15.95;7.00;;;;;;;;;;4955179;28;20047;-71
2022/02/26 05:54:28;;;;;;;19.10;7.72;;;;;;;;;;4955395;28;20039;-70
2022/02/26 05:56:56;;;;;;;22.77;9.20;;;;;;;;;;4955360;28;20608;-70
2022/02/26 05:59:23;;;;;;;20.38;10.70;;;;;;;;;;4954957;28;20078;-71
2022/02/26 06:01:51;;;;;;;21.55;10.95;;;;;;;;;;4955488;29;20061;-73
2022/02/26 06:04:19;;;;;;;14.80;8.90;;;;;;;;;;4954981;29;20063;-71
2022/02/26 06:06:46;;;;;;;15.02;7.70;;;;;;;;;;4969583;28;20047;-73
2022/02/26 06:09:13;;;;;;;14.95;7.43;;;;;;;;;;4970103;28;20039;-71
2022/02/26 06:11:41;;;;;;;14.27;6.28;;;;;;;;;;4955157;29;20043;-73
2022/02/26 06:14:09;;;;;;;11.60;6.43;;;;;;;;;;4954764;29;20043;-70
2022/02/26 06:16:37;;;;;;;14.82;7.10;;;;;;;;;;4954872;29;20455;-70
2022/02/26 06:19:04;;;;;;;15.63;7.07;;;;;;;;;;4954293;29;20073;-73
2022/02/26 06:21:34;;;;;;;15.43;6.20;;;;;;;;;;4954757;29;20035;-73
2022/02/26 06:24:01;;;;;;;14.40;4.78;;;;;;;;;;4954514;29;20054;-71
2022/02/26 06:26:29;;;;;;;11.30;5.22;;;;;;;;;;4954343;29;20038;-70
2022/02/26 06:28:57;;;;;;;13.07;5.50;;;;;;;;;;4953832;28;20059;-70
2022/02/26 06:31:25;;;;;;;10.95;4.90;;;;;;;;;;4954194;28;20070;-71
2022/02/26 06:33:53;;;;;;;11.23;5.22;;;;;;;;;;4969428;28;20047;-71
2022/02/26 06:36:22;;;;;;;13.43;5.18;;;;;;;;;;4955161;29;20502;-72
2022/02/26 06:38:49;;;;;;;11.02;4.15;;;;;;;;;;4954626;29;20050;-72
2022/02/26 06:41:17;;;;;;;11.68;3.80;;;;;;;;;;4954278;29;20047;-70
2022/02/26 06:43:44;;;;;;;9.57;3.90;;;;;;;;;;4954992;29;20042;-71
2022/02/26 06:46:13;;;;;;;9.75;4.35;;;;;;;;;;4969510;28;20051;-68
2022/02/26 06:48:41;;;;;;;10.85;5.03;;;;;;;;;;4954908;28;20395;-71
2022/02/26 06:51:09;;;;;;;9.23;4.28;;;;;;;;;;4969185;28;20047;-69
2022/02/26 06:53:36;;;;;;;10.48;3.60;;;;;;;;;;4954632;29;20057;-68
2022/02/26 06:56:06;;;;;;;10.68;4.20;;;;;;;;;;4953428;29;20361;-72
2022/02/26 06:58:34;;;;;;;7.00;4.30;;;;;;;;;;4952685;29;20439;-68
2022/02/26 07:01:02;;;;;;;17.02;4.63;;;;;;;;;;4954012;28;20035;-71
2022/02/26 07:03:29;;;;;;;13.10;4.93;;;;;;;;;;4953859;28;20043;-72
2022/02/26 07:05:58;;;;;;;9.77;4.57;;;;;;;;;;4950406;28;20123;-73
2022/02/26 07:08:26;;;;;;;6.53;3.78;;;;;;;;;;4946589;29;20046;-71
2022/02/26 07:10:57;;;;;;;15.93;4.38;;;;;;;;;;4945863;28;20043;-73
2022/02/26 07:13:25;;;;;;;8.85;4.20;;;;;;;;;;4948275;29;20043;-70
2022/02/26 07:15:53;;;;;;;15.05;4.95;;;;;;;;;;4947304;29;20046;-70
2022/02/26 07:18:20;;;;;;;16.20;6.03;;;;;;;;;;4950240;29;20046;-73
2022/02/26 07:20:48;;;;;;;17.52;6.70;;;;;;;;;;4944226;29;20039;-72
2022/02/26 07:23:16;;;;;;;10.32;4.75;;;;;;;;;;5068799;22;20408;-70
2022/02/26 07:25:45;;;;;;;9.00;4.43;;;;;;;;;;4995705;28;20493;-72
2022/02/26 07:28:13;;;;;;;10.88;4.40;;;;;;;;;;4994394;28;20117;-72
2022/02/26 07:30:42;;;;;;;11.38;4.40;;;;;;;;;;4995790;28;20053;-72
2022/02/26 07:33:10;;;;;;;12.75;6.20;;;;;;;;;;4996650;28;20125;-70
2022/02/26 07:35:38;;;;;;;12.35;4.10;;;;;;;;;;4994917;28;20046;-72
2022/02/26 07:38:07;;;;;;;16.67;7.82;;;;;;;;;;4996383;28;20050;-69
2022/02/26 07:40:41;;;;;;;9.20;4.90;;;;;;;;;;4978412;28;20069;-73
2022/02/26 07:43:09;;;;;;;10.15;3.50;;;;;;;;;;4975437;28;20406;-69
2022/02/26 07:45:37;;;;;;;9.80;4.78;;;;;;;;;;4976293;28;20374;-72
2022/02/26 07:48:05;;;;;;;9.98;4.40;;;;;;;;;;4977065;28;20069;-72
2022/02/26 07:50:33;;;;;;;10.73;4.18;;;;;;;;;;4992124;28;20046;-72
2022/02/26 07:53:00;;;;;;;10.85;4.25;;;;;;;;;;4975423;28;20043;-69
2022/02/26 07:55:34;;;;;;;8.02;3.78;;;;;;;;;;4976521;28;20482;-72
2022/02/26 07:58:02;;;;;;;9.25;4.97;;;;;;;;;;4976668;28;20553;-73
2022/02/26 08:00:30;;;;;;;7.53;2.92;;;;;;;;;;4976477;28;20038;-72
2022/02/26 08:03:00;;;;;;;8.15;3.30;;;;;;;;;;4976862;28;20035;-73
2022/02/26 08:05:30;;;;;;;9.63;3.47;;;;;;;;;;4976390;28;20047;-72
2022/02/26 08:08:01;;;;;;;8.77;3.53;;;;;;;;;;4976403;28;20047;-74
2022/02/26 08:10:29;;;;;;;7.55;3.83;;;;;;;;;;4976465;28;20047;-73
2022/02/26 08:12:57;;;;;;;9.23;3.35;;;;;;;;;;5007780;28;20430;-71
2022/02/26 08:15:26;;;;;;;6.90;2.85;;;;;;;;;;4976473;28;20047;-73
2022/02/26 08:17:55;;;;;;;7.28;3.28;;;;;;;;;;4988590;28;20058;-71
2022/02/26 08:20:25;;;;;;;11.23;3.13;;;;;;;;;;4995564;28;20031;-71
2022/02/26 08:22:56;;;;;;;9.43;3.20;;;;;;;;;;4995391;28;20505;-69
2022/02/26 08:25:24;;;;;;;6.05;2.60;;;;;;;;;;4995030;28;20544;-70
2022/02/26 08:27:51;;;;;;;5.32;2.90;;;;;;;;;;4995536;28;20121;-73
2022/02/26 08:30:21;;;;;;;6.60;3.40;;;;;;;;;;4995188;28;20043;-69
2022/02/26 08:32:50;;;;;;;9.98;4.63;;;;;;;;;;4990174;28;20081;-73
2022/02/26 08:35:20;;;;;;;8.13;3.45;;;;;;;;;;4988329;28;20045;-72
2022/02/26 08:37:48;;;;;;;7.60;3.42;;;;;;;;;;5013502;28;20054;-72
2022/02/26 08:40:16;;;;;;;7.10;3.97;;;;;;;;;;4996686;28;20047;-72
2022/02/26 08:42:46;;;;;;;8.68;2.92;;;;;;;;;;4994680;28;20038;-71
2022/02/26 08:45:18;;;;;;;5.65;2.75;;;;;;;;;;4994828;28;20042;-69
2022/02/26 08:47:46;;;;;;;7.30;2.90;;;;;;;;;;4993748;28;20454;-71
2022/02/26 08:50:16;;;;;;;5.70;2.70;;;;;;;;;;4994835;28;20077;-73
2022/02/26 08:52:44;;;;;;;7.07;3.10;;;;;;;;;;4993812;28;20044;-72
2022/02/26 08:55:11;;;;;;;8.20;3.47;;;;;;;;;;4994115;28;20041;-69
2022/02/26 08:57:40;;;;;;;7.55;3.22;;;;;;;;;;4994470;28;20048;-69
2022/02/26 09:00:09;;;;;;;7.68;3.60;;;;;;;;;;4994257;28;20049;-73
2022/02/26 09:02:36;;;;;;;7.47;3.50;;;;;;;;;;4994045;28;20117;-72
2022/02/26 09:05:04;;;;;;;10.00;3.60;;;;;;;;;;4994186;28;20042;-73
2022/02/26 09:07:32;;;;;;;11.38;3.75;;;;;;;;;;4994470;28;20437;-69
2022/02/26 09:09:59;;;;;;;9.98;3.97;;;;;;;;;;4990724;28;20409;-71
2022/02/26 09:12:27;;;;;;;12.70;4.22;;;;;;;;;;4980547;28;20507;-71
2022/02/26 09:14:55;;;;;;;13.32;3.95;;;;;;;;;;4974038;28;20102;-71
2022/02/26 09:17:24;;;;;;;9.25;3.50;;;;;;;;;;4990447;28;20379;-70
2022/02/26 09:19:52;;;;;;;7.55;3.20;;;;;;;;;;4974390;28;20478;-72
2022/02/26 09:22:21;;;;;;;7.40;3.30;;;;;;;;;;4974627;28;20131;-72
2022/02/26 09:24:49;;;;;;;6.50;2.95;;;;;;;;;;4974685;28;20081;-70
2022/02/26 09:27:16;;;;;;;7.38;3.20;;;;;;;;;;4984478;28;20042;-72
2022/02/26 09:29:44;;;;;;;7.28;3.25;;;;;;;;;;4994625;28;20038;-71
2022/02/26 09:32:11;;;;;;;8.95;3.08;;;;;;;;;;4993199;28;20042;-70
2022/02/26 09:34:39;;;;;;;10.75;3.50;;;;;;;;;;4991179;28;20122;-69
2022/02/26 09:37:06;;;;;;;10.55;3.78;;;;;;;;;;4994348;28;20030;-72
2022/02/26 09:39:34;;;;;;;8.70;3.83;;;;;;;;;;4993724;28;20040;-69
2022/02/26 09:42:02;;;;;;;7.20;3.60;;;;;;;;;;4993351;28;20108;-71
2022/02/26 09:44:30;;;;;;;8.57;3.45;;;;;;;;;;4994032;28;20042;-72
2022/02/26 09:46:59;;;;;;;6.72;3.30;;;;;;;;;;4994130;28;20104;-70
2022/02/26 09:49:26;;;;;;;10.10;3.50;;;;;;;;;;4993723;28;20125;-74
2022/02/26 09:51:58;;;;;;;10.85;3.05;;;;;;;;;;5008293;28;20417;-71
2022/02/26 09:54:26;;;;;;;7.03;2.88;;;;;;;;;;4993883;28;20076;-72
2022/02/26 09:56:53;;;;;;;10.55;3.53;;;;;;;;;;4993906;28;20050;-70
2022/02/26 09:59:29;;;;;;;7.50;2.67;;;;;;;;;;4993509;28;20113;-70
2022/02/26 10:01:58;;;;;;;10.65;4.35;;;;;;;;;;4993805;28;20422;-70
2022/02/26 10:04:27;;;;;;;9.60;3.38;;;;;;;;;;4994083;28;20043;-71
2022/02/26 10:07:22;;;;;;;13.05;4.80;;;;;;;;;;4993540;28;20070;-69
2022/02/26 10:09:50;;;;;;;8.38;3.42;;;;;;;;;;4992301;28;20179;-70
2022/02/26 10:12:17;;;;;;;7.53;3.00;;;;;;;;;;4992415;28;20518;-73
2022/02/26 10:14:45;;;;;;;13.25;3.00;;;;;;;;;;4993822;28;20046;-71
2022/02/26 10:17:23;;;;;;;6.60;2.33;;;;;;;;;;4993740;28;20430;-69
2022/02/26 10:19:59;;;;;;;7.53;2.85;;;;;;;;;;4993660;28;20208;-70
2022/02/26 10:22:28;;;;;;;8.93;2.78;;;;;;;;;;4993820;28;20051;-69
2022/02/26 10:24:56;;;;;;;8.18;2.85;;;;;;;;;;4993634;28;20129;-73
2022/02/26 10:27:26;;;;;;;6.05;2.72;;;;;;;;;;5024978;28;20093;-70
2022/02/26 10:29:53;;;;;;;10.95;2.80;;;;;;;;;;4993101;28;20457;-71
2022/02/26 10:32:21;;;;;;;9.40;2.88;;;;;;;;;;4993692;28;20066;-69
2022/02/26 10:34:49;;;;;;;12.02;3.05;;;;;;;;;;4991907;28;20354;-72
2022/02/26 10:37:17;;;;;;;6.82;2.70;;;;;;;;;;4992991;28;20385;-70
2022/02/26 10:39:58;;;;;;;13.20;2.60;;;;;;;;;;4993312;28;20043;-71
2022/02/26 10:42:28;;;;;;;10.98;2.97;;;;;;;;;;4991476;28;20050;-69
2022/02/26 10:45:15;;;;;;;13.70;2.80;;;;;;;;;;4993160;28;20510;-70
2022/02/26 10:47:44;;;;;;;6.63;3.10;;;;;;;;;;4992463;28;20042;-70
2022/02/26 10:50:16;;;;;;;11.00;2.72;;;;;;;;;;4993311;28;20060;-71
2022/02/26 10:52:57;;;;;;;8.25;2.80;;;;;;;;;;4993328;28;20100;-69
2022/02/26 10:55:47;;;;;;;10.25;2.88;;;;;;;;;;4993258;28;20541;-69
2022/02/26 10:58:19;;;;;;;18.05;4.43;;;;;;;;;;4986861;28;20051;-70
2022/02/26 11:00:47;;;;;;;13.88;3.88;;;;;;;;;;4993355;28;20409;-73
2022/02/26 11:03:16;;;;;;;10.90;3.10;;;;;;;;;;4992924;28;20085;-71
2022/02/26 11:05:45;;;;;;;17.08;3.15;;;;;;;;;;5023595;28;20042;-71
2022/02/26 11:08:15;;;;;;;19.00;4.97;;;;;;;;;;4993055;28;20035;-70
2022/02/26 11:10:45;;;;;;;10.32;2.80;;;;;;;;;;4991500;28;20126;-72
2022/02/26 11:13:13;;;;;;;13.38;3.03;;;;;;;;;;4993261;28;20429;-70
2022/02/26 11:15:42;;;;;;;16.48;3.50;;;;;;;;;;4992675;28;20054;-71
2022/02/26 11:18:12;;;;;;;7.07;2.25;;;;;;;;;;4992725;28;20046;-71
2022/02/26 11:20:41;;;;;;;14.63;3.72;;;;;;;;;;5023948;28;20038;-69
2022/02/26 11:23:09;;;;;;;10.02;2.72;;;;;;;;;;5007470;28;20074;-69
2022/02/26 11:25:37;;;;;;;8.43;2.53;;;;;;;;;;4992415;28;20109;-70
2022/02/26 11:28:06;;;;;;;13.35;3.28;;;;;;;;;;4992038;28;20593;-72
2022/02/26 11:30:37;;;;;;;7.32;2.47;;;;;;;;;;4992163;28;20034;-70
2022/02/26 11:33:05;;;;;;;10.50;3.22;;;;;;;;;;4990690;28;20262;-73
2022/02/26 11:35:33;;;;;;;11.43;2.75;;;;;;;;;;4992640;28;20042;-70
2022/02/26 11:38:07;;;;;;;8.98;2.53;;;;;;;;;;4992843;28;20054;-70
2022/02/26 11:40:35;;;;;;;8.27;2.75;;;;;;;;;;4992712;28;20039;-70
2022/02/26 11:43:03;;;;;;;10.52;2.88;;;;;;;;;;4992265;28;20141;-73
2022/02/26 11:45:31;;;;;;;13.52;3.28;;;;;;;;;;4992700;28;20049;-72
2022/02/26 11:48:00;;;;;;;9.00;2.60;;;;;;;;;;4992293;28;20474;-73
2022/02/26 11:50:30;;;;;;;9.70;2.42;;;;;;;;;;4992961;28;20117;-70
2022/02/26 11:52:57;;;;;;;8.68;2.38;;;;;;;;;;4993029;28;20065;-74
2022/02/26 11:55:27;;;;;;;10.50;2.80;;;;;;;;;;4991326;28;20045;-71
2022/02/26 11:57:56;;;;;;;9.05;3.05;;;;;;;;;;4993589;28;20357;-73
2022/02/26 12:00:24;;;;;;;10.20;3.10;;;;;;;;;;4995878;28;20041;-74
2022/02/26 12:03:10;;;;;;;12.63;3.67;;;;;;;;;;4996096;28;20045;-70
2022/02/26 12:05:37;;;;;;;10.10;2.63;;;;;;;;;;4994121;28;20129;-70
2022/02/26 12:08:09;;;;;;;4.72;2.45;;;;;;;;;;4995776;28;20073;-72
2022/02/26 12:10:36;;;;;;;7.15;2.78;;;;;;;;;;4995867;28;20053;-70
2022/02/26 12:13:23;;;;;;;6.32;2.35;;;;;;;;;;4996051;28;20066;-72
2022/02/26 12:16:07;;;;;;;9.25;2.97;;;;;;;;;;4995710;28;20390;-70
2022/02/26 12:18:42;;;;;;;9.60;3.10;;;;;;;;;;4995293;28;20233;-71
2022/02/26 12:21:10;;;;;;;11.23;2.70;;;;;;;;;;4994404;28;20054;-70
2022/02/26 12:24:01;;;;;;;6.07;2.55;;;;;;;;;;4995365;28;20054;-70
2022/02/26 12:26:42;;;;;;;7.75;2.97;;;;;;;;;;4995526;28;20045;-70
2022/02/26 12:29:17;;;;;;;7.93;2.50;;;;;;;;;;4995631;28;20054;-72
2022/02/26 12:31:53;;;;;;;7.93;2.63;;;;;;;;;;4994482;28;20065;-71
2022/02/26 12:34:21;;;;;;;7.40;2.67;;;;;;;;;;4994111;28;20132;-72
2022/02/26 12:36:54;;;;;;;7.90;3.00;;;;;;;;;;4995712;28;20038;-74
2022/02/26 12:39:28;;;;;;;6.30;2.50;;;;;;;;;;4994006;28;20097;-72
2022/02/26 12:41:55;;;;;;;4.88;2.28;;;;;;;;;;4993593;28;20046;-73
2022/02/26 12:44:24;;;;;;;8.75;2.78;;;;;;;;;;4995613;28;20053;-73
2022/02/26 12:46:52;;;;;;;11.73;3.13;;;;;;;;;;4994992;28;20046;-70
2022/02/26 12:49:20;;;;;;;6.82;2.25;;;;;;;;;;4995572;28;20133;-73
2022/02/26 12:51:49;;;;;;;6.57;2.47;;;;;;;;;;4994311;28;20402;-72
2022/02/26 12:54:27;;;;;;;5.45;2.08;;;;;;;;;;4994972;28;20045;-73
2022/02/26 12:56:54;;;;;;;5.82;2.47;;;;;;;;;;4995096;28;20049;-75
2022/02/26 12:59:22;;;;;;;8.68;2.92;;;;;;;;;;4994790;28;20042;-74
2022/02/26 13:01:53;;;;;;;7.43;2.50;;;;;;;;;;4994985;28;20042;-71
2022/02/26 13:04:28;;;;;;;9.10;2.85;;;;;;;;;;4995281;28;20461;-74
2022/02/26 13:07:00;;;;;;;11.60;2.58;;;;;;;;;;4994690;28;20122;-74
2022/02/26 13:09:28;;;;;;;4.78;1.98;;;;;;;;;;4994229;28;20042;-73
2022/02/26 13:11:57;;;;;;;6.32;2.60;;;;;;;;;;4995112;28;20035;-72
2022/02/26 13:14:25;;;;;;;7.00;2.05;;;;;;;;;;4995120;28;20125;-71
2022/02/26 13:16:57;;;;;;;6.93;2.65;;;;;;;;;;4995089;28;20577;-75
2022/02/26 13:19:25;;;;;;;9.30;2.70;;;;;;;;;;4994279;28;20034;-71
2022/02/26 13:21:54;;;;;;;7.03;2.35;;;;;;;;;;4994386;28;20046;-74
2022/02/26 13:24:25;;;;;;;8.43;2.67;;;;;;;;;;4994804;28;20054;-71
2022/02/26 13:26:58;;;;;;;6.32;2.33;;;;;;;;;;4994546;28;20042;-71
2022/02/26 13:29:26;;;;;;;9.05;2.80;;;;;;;;;;4994619;28;20050;-72
2022/02/26 13:31:54;;;;;;;6.03;2.30;;;;;;;;;;4994544;28;20053;-73
2022/02/26 13:34:22;;;;;;;9.20;2.92;;;;;;;;;;4993014;28;20042;-71
2022/02/26 13:36:50;;;;;;;9.57;2.95;;;;;;;;;;4993065;28;20047;-72
2022/02/26 13:39:20;;;;;;;8.02;2.42;;;;;;;;;;4994320;28;20133;-74
2022/02/26 13:41:58;;;;;;;8.63;2.78;;;;;;;;;;4993926;28;20487;-70
2022/02/26 13:44:36;;;;;;;7.97;2.35;;;;;;;;;;4977060;28;20047;-71
2022/02/26 13:47:08;;;;;;;8.30;2.95;;;;;;;;;;4994255;28;20039;-74
2022/02/26 13:49:36;;;;;;;11.05;3.08;;;;;;;;;;4994475;28;20038;-71
2022/02/26 13:52:08;;;;;;;7.75;2.83;;;;;;;;;;4977134;28;20382;-72
2022/02/26 13:54:45;;;;;;;12.25;3.03;;;;;;;;;;4993889;28;20049;-71
2022/02/26 13:57:17;;;;;;;10.13;2.67;;;;;;;;;;4994342;28;20110;-70
2022/02/26 13:59:47;;;;;;;8.98;2.58;;;;;;;;;;4993967;28;20070;-72
2022/02/26 14:02:20;;;;;;;8.98;2.92;;;;;;;;;;4993824;28;20105;-70
2022/02/26 14:04:55;;;;;;;6.75;2.50;;;;;;;;;;4993751;28;20061;-72
2022/02/26 14:07:38;;;;;;;10.50;2.60;;;;;;;;;;4992269;28;20042;-73
2022/02/26 14:10:05;;;;;;;;;;;;;;;;;;4993156;28;20042;-74
2022/02/26 14:12:33;;;;;;;7.85;2.28;;;;;;;;;;4993878;28;20373;-71
2022/02/26 14:15:06;;;;;;;12.30;3.22;;;;;;;;;;4992384;28;20050;-71
2022/02/26 14:17:35;;;;;;;9.00;2.33;;;;;;;;;;4992520;28;20683;-72
2022/02/26 14:20:03;;;;;;;6.05;2.60;;;;;;;;;;4976069;28;20422;-73
2022/02/26 14:22:33;;;;;;;10.48;3.13;;;;;;;;;;4993340;28;20077;-70
2022/02/26 14:25:09;;;;;;;8.52;2.92;;;;;;;;;;4992607;28;20073;-73
2022/02/26 14:27:44;;;;;;;6.30;2.40;;;;;;;;;;4993391;28;20113;-73
2022/02/26 14:30:13;;;;;;;7.53;2.60;;;;;;;;;;4993134;28;20078;-73
2022/02/26 14:32:42;;;;;;;9.23;2.55;;;;;;;;;;4992455;28;20112;-73
2022/02/26 14:35:10;;;;;;;6.43;2.28;;;;;;;;;;4993259;28;20042;-73
2022/02/26 14:37:38;;;;;;;8.52;2.42;;;;;;;;;;4993572;28;20072;-70
2022/02/26 14:40:10;;;;;;;9.90;2.25;;;;;;;;;;4993408;28;20043;-70
2022/02/26 14:42:41;;;;;;;9.57;2.50;;;;;;;;;;4993101;28;20072;-73
2022/02/26 14:45:10;;;;;;;9.77;2.47;;;;;;;;;;4993175;28;20042;-72
2022/02/26 14:47:38;;;;;;;8.35;2.30;;;;;;;;;;4992198;28;20197;-70
2022/02/26 14:50:06;;;;;;;4.47;1.85;;;;;;;;;;4992779;28;20054;-74